sensor_id;sensor_type;location;lat;lon;timestamp;P1;durP1;ratioP1;P2;durP2;ratioP2
64060;SDS011;60147;55.036;73.242;2023-04-22T00:01:00;9.68;;;4.28;;
64060;SDS011;60147;55.036;73.242;2023-04-22T00:03:26;10.60;;;4.55;;
64060;SDS011;60147;55.036;73.242;2023-04-22T00:05:53;10.88;;;4.53;;
64060;SDS011;60147;55.036;73.242;2023-04-22T00:11:09;7.38;;;4.40;;
64060;SDS011;60147;55.036;73.242;2023-04-22T00:13:35;9.30;;;5.35;;
64060;SDS011;60147;55.036;73.242;2023-04-22T00:16:29;8.30;;;5.00;;
64060;SDS011;60147;55.036;73.242;2023-04-22T00:18:55;12.35;;;5.20;;
64060;SDS011;60147;55.036;73.242;2023-04-22T00:21:21;7.93;;;3.63;;
64060;SDS011;60147;55.036;73.242;2023-04-22T00:23:47;9.15;;;4.13;;
64060;SDS011;60147;55.036;73.242;2023-04-22T00:26:31;12.07;;;4.93;;
64060;SDS011;60147;55.036;73.242;2023-04-22T00:28:57;12.68;;;4.65;;
64060;SDS011;60147;55.036;73.242;2023-04-22T00:31:23;14.32;;;5.32;;
64060;SDS011;60147;55.036;73.242;2023-04-22T00:33:54;11.05;;;4.68;;
64060;SDS011;60147;55.036;73.242;2023-04-22T00:36:20;9.45;;;5.28;;
64060;SDS011;60147;55.036;73.242;2023-04-22T00:38:47;13.52;;;4.95;;
64060;SDS011;60147;55.036;73.242;2023-04-22T00:41:14;12.43;;;5.20;;
64060;SDS011;60147;55.036;73.242;2023-04-22T00:43:40;9.15;;;4.97;;
64060;SDS011;60147;55.036;73.242;2023-04-22T00:46:25;10.57;;;5.35;;
64060;SDS011;60147;55.036;73.242;2023-04-22T00:48:51;11.48;;;5.70;;
64060;SDS011;60147;55.036;73.242;2023-04-22T00:51:17;11.98;;;5.35;;
64060;SDS011;60147;55.036;73.242;2023-04-22T00:53:43;12.88;;;5.32;;
64060;SDS011;60147;55.036;73.242;2023-04-22T00:56:19;9.63;;;4.45;;
64060;SDS011;60147;55.036;73.242;2023-04-22T00:58:46;13.35;;;6.32;;
64060;SDS011;60147;55.036;73.242;2023-04-22T01:01:12;10.40;;;5.93;;
64060;SDS011;60147;55.036;73.242;2023-04-22T01:03:39;9.52;;;5.10;;
64060;SDS011;60147;55.036;73.242;2023-04-22T01:06:05;11.90;;;5.60;;
64060;SDS011;60147;55.036;73.242;2023-04-22T01:08:49;9.18;;;4.80;;
64060;SDS011;60147;55.036;73.242;2023-04-22T01:11:15;10.82;;;4.88;;
64060;SDS011;60147;55.036;73.242;2023-04-22T01:13:41;10.93;;;5.50;;
64060;SDS011;60147;55.036;73.242;2023-04-22T01:16:07;9.18;;;4.95;;
64060;SDS011;60147;55.036;73.242;2023-04-22T01:18:52;17.98;;;5.50;;
64060;SDS011;60147;55.036;73.242;2023-04-22T01:21:36;16.17;;;5.03;;
64060;SDS011;60147;55.036;73.242;2023-04-22T01:24:03;13.93;;;4.97;;
64060;SDS011;60147;55.036;73.242;2023-04-22T01:26:29;9.73;;;4.57;;
64060;SDS011;60147;55.036;73.242;2023-04-22T01:29:06;12.80;;;4.68;;
64060;SDS011;60147;55.036;73.242;2023-04-22T01:31:40;9.90;;;5.18;;
64060;SDS011;60147;55.036;73.242;2023-04-22T01:34:06;8.98;;;4.88;;
64060;SDS011;60147;55.036;73.242;2023-04-22T01:36:32;8.88;;;5.18;;
64060;SDS011;60147;55.036;73.242;2023-04-22T01:38:59;9.05;;;5.35;;
64060;SDS011;60147;55.036;73.242;2023-04-22T01:41:25;7.88;;;4.75;;
64060;SDS011;60147;55.036;73.242;2023-04-22T01:49:20;10.93;;;5.20;;
64060;SDS011;60147;55.036;73.242;2023-04-22T01:51:46;11.95;;;5.63;;
64060;SDS011;60147;55.036;73.242;2023-04-22T01:54:12;9.27;;;4.85;;
64060;SDS011;60147;55.036;73.242;2023-04-22T01:56:38;9.18;;;4.90;;
64060;SDS011;60147;55.036;73.242;2023-04-22T02:01:38;9.43;;;5.43;;
64060;SDS011;60147;55.036;73.242;2023-04-22T02:10:04;12.05;;;5.40;;
64060;SDS011;60147;55.036;73.242;2023-04-22T02:12:31;13.75;;;6.55;;
64060;SDS011;60147;55.036;73.242;2023-04-22T02:14:57;8.13;;;5.15;;
64060;SDS011;60147;55.036;73.242;2023-04-22T02:17:24;10.98;;;5.93;;
64060;SDS011;60147;55.036;73.242;2023-04-22T02:19:50;8.95;;;5.50;;
64060;SDS011;60147;55.036;73.242;2023-04-22T02:22:34;8.77;;;5.10;;
64060;SDS011;60147;55.036;73.242;2023-04-22T02:25:00;9.13;;;5.70;;
64060;SDS011;60147;55.036;73.242;2023-04-22T02:27:26;8.18;;;5.18;;
64060;SDS011;60147;55.036;73.242;2023-04-22T02:30:21;11.38;;;5.25;;
64060;SDS011;60147;55.036;73.242;2023-04-22T02:32:47;13.52;;;5.22;;
64060;SDS011;60147;55.036;73.242;2023-04-22T02:35:13;11.65;;;6.35;;
64060;SDS011;60147;55.036;73.242;2023-04-22T02:37:40;7.40;;;5.38;;
64060;SDS011;60147;55.036;73.242;2023-04-22T02:40:06;10.50;;;6.63;;
64060;SDS011;60147;55.036;73.242;2023-04-22T02:45:35;9.60;;;5.38;;
64060;SDS011;60147;55.036;73.242;2023-04-22T02:48:01;10.02;;;5.47;;
64060;SDS011;60147;55.036;73.242;2023-04-22T02:50:27;9.57;;;5.22;;
64060;SDS011;60147;55.036;73.242;2023-04-22T02:52:54;16.25;;;7.13;;
64060;SDS011;60147;55.036;73.242;2023-04-22T02:55:41;8.55;;;5.75;;
64060;SDS011;60147;55.036;73.242;2023-04-22T02:58:07;14.65;;;7.22;;
64060;SDS011;60147;55.036;73.242;2023-04-22T03:03:04;18.20;;;6.72;;
64060;SDS011;60147;55.036;73.242;2023-04-22T03:05:33;15.40;;;6.88;;
64060;SDS011;60147;55.036;73.242;2023-04-22T03:08:10;10.30;;;6.25;;
64060;SDS011;60147;55.036;73.242;2023-04-22T03:10:54;20.02;;;6.90;;
64060;SDS011;60147;55.036;73.242;2023-04-22T03:13:26;15.18;;;7.38;;
64060;SDS011;60147;55.036;73.242;2023-04-22T03:16:10;11.82;;;6.50;;
64060;SDS011;60147;55.036;73.242;2023-04-22T03:18:37;11.15;;;5.68;;
64060;SDS011;60147;55.036;73.242;2023-04-22T03:21:05;12.02;;;5.68;;
64060;SDS011;60147;55.036;73.242;2023-04-22T03:23:41;10.77;;;5.40;;
64060;SDS011;60147;55.036;73.242;2023-04-22T03:26:30;12.98;;;6.00;;
64060;SDS011;60147;55.036;73.242;2023-04-22T03:31:41;15.27;;;6.13;;
64060;SDS011;60147;55.036;73.242;2023-04-22T03:34:07;10.70;;;5.05;;
64060;SDS011;60147;55.036;73.242;2023-04-22T03:36:34;14.60;;;5.20;;
64060;SDS011;60147;55.036;73.242;2023-04-22T03:39:18;12.20;;;5.32;;
64060;SDS011;60147;55.036;73.242;2023-04-22T03:41:50;7.70;;;4.63;;
64060;SDS011;60147;55.036;73.242;2023-04-22T03:44:39;13.57;;;5.50;;
64060;SDS011;60147;55.036;73.242;2023-04-22T03:47:38;9.40;;;5.05;;
64060;SDS011;60147;55.036;73.242;2023-04-22T03:50:14;11.52;;;5.40;;
64060;SDS011;60147;55.036;73.242;2023-04-22T03:52:50;9.90;;;5.50;;
64060;SDS011;60147;55.036;73.242;2023-04-22T03:55:29;18.20;;;6.40;;
64060;SDS011;60147;55.036;73.242;2023-04-22T03:57:55;11.00;;;5.85;;
64060;SDS011;60147;55.036;73.242;2023-04-22T04:00:21;10.05;;;5.65;;
64060;SDS011;60147;55.036;73.242;2023-04-22T04:02:57;14.40;;;5.75;;
64060;SDS011;60147;55.036;73.242;2023-04-22T04:05:36;9.45;;;5.38;;
64060;SDS011;60147;55.036;73.242;2023-04-22T04:10:33;10.10;;;4.53;;
64060;SDS011;60147;55.036;73.242;2023-04-22T04:13:00;9.70;;;4.75;;
64060;SDS011;60147;55.036;73.242;2023-04-22T04:15:36;13.95;;;5.47;;
64060;SDS011;60147;55.036;73.242;2023-04-22T04:18:02;10.57;;;4.38;;
64060;SDS011;60147;55.036;73.242;2023-04-22T04:20:31;10.57;;;4.65;;
64060;SDS011;60147;55.036;73.242;2023-04-22T04:22:57;10.27;;;5.25;;
64060;SDS011;60147;55.036;73.242;2023-04-22T04:25:24;16.52;;;5.28;;
64060;SDS011;60147;55.036;73.242;2023-04-22T04:28:09;8.75;;;4.95;;
64060;SDS011;60147;55.036;73.242;2023-04-22T04:30:36;8.85;;;4.53;;
64060;SDS011;60147;55.036;73.242;2023-04-22T04:33:12;11.55;;;5.28;;
64060;SDS011;60147;55.036;73.242;2023-04-22T04:35:43;14.50;;;5.30;;
64060;SDS011;60147;55.036;73.242;2023-04-22T04:38:12;14.63;;;4.75;;
64060;SDS011;60147;55.036;73.242;2023-04-22T04:40:39;9.05;;;4.85;;
64060;SDS011;60147;55.036;73.242;2023-04-22T04:43:28;12.07;;;4.88;;
64060;SDS011;60147;55.036;73.242;2023-04-22T04:46:17;10.68;;;4.72;;
64060;SDS011;60147;55.036;73.242;2023-04-22T04:49:20;13.95;;;4.53;;
64060;SDS011;60147;55.036;73.242;2023-04-22T04:51:56;11.60;;;4.57;;
64060;SDS011;60147;55.036;73.242;2023-04-22T04:54:22;9.98;;;4.70;;
64060;SDS011;60147;55.036;73.242;2023-04-22T04:57:11;10.00;;;4.78;;
64060;SDS011;60147;55.036;73.242;2023-04-22T04:59:39;11.68;;;5.00;;
64060;SDS011;60147;55.036;73.242;2023-04-22T05:02:05;12.73;;;4.82;;
64060;SDS011;60147;55.036;73.242;2023-04-22T05:04:49;9.70;;;4.47;;
64060;SDS011;60147;55.036;73.242;2023-04-22T05:07:20;13.20;;;4.95;;
64060;SDS011;60147;55.036;73.242;2023-04-22T05:10:17;13.40;;;4.88;;
64060;SDS011;60147;55.036;73.242;2023-04-22T05:12:43;12.48;;;4.30;;
64060;SDS011;60147;55.036;73.242;2023-04-22T05:18:05;10.38;;;4.38;;
64060;SDS011;60147;55.036;73.242;2023-04-22T05:20:31;11.68;;;3.88;;
64060;SDS011;60147;55.036;73.242;2023-04-22T05:23:15;11.68;;;3.80;;
64060;SDS011;60147;55.036;73.242;2023-04-22T05:25:42;9.20;;;4.53;;
64060;SDS011;60147;55.036;73.242;2023-04-22T05:28:10;7.50;;;3.78;;
64060;SDS011;60147;55.036;73.242;2023-04-22T05:30:44;7.47;;;4.13;;
64060;SDS011;60147;55.036;73.242;2023-04-22T05:33:20;10.23;;;4.18;;
64060;SDS011;60147;55.036;73.242;2023-04-22T05:36:05;8.00;;;4.10;;
64060;SDS011;60147;55.036;73.242;2023-04-22T05:41:34;10.93;;;4.25;;
64060;SDS011;60147;55.036;73.242;2023-04-22T05:44:19;8.43;;;4.13;;
64060;SDS011;60147;55.036;73.242;2023-04-22T05:47:15;8.68;;;4.00;;
64060;SDS011;60147;55.036;73.242;2023-04-22T05:49:59;12.23;;;4.55;;
64060;SDS011;60147;55.036;73.242;2023-04-22T05:52:42;12.55;;;4.25;;
64060;SDS011;60147;55.036;73.242;2023-04-22T05:58:15;11.10;;;3.88;;
64060;SDS011;60147;55.036;73.242;2023-04-22T06:01:07;9.18;;;3.38;;
64060;SDS011;60147;55.036;73.242;2023-04-22T06:04:03;6.70;;;3.58;;
64060;SDS011;60147;55.036;73.242;2023-04-22T06:06:42;6.78;;;3.22;;
64060;SDS011;60147;55.036;73.242;2023-04-22T06:09:08;7.22;;;3.50;;
64060;SDS011;60147;55.036;73.242;2023-04-22T06:11:34;10.30;;;3.67;;
64060;SDS011;60147;55.036;73.242;2023-04-22T06:14:23;7.03;;;3.75;;
64060;SDS011;60147;55.036;73.242;2023-04-22T06:16:49;10.30;;;3.90;;
64060;SDS011;60147;55.036;73.242;2023-04-22T06:19:17;7.88;;;3.20;;
64060;SDS011;60147;55.036;73.242;2023-04-22T06:21:43;9.55;;;3.40;;
64060;SDS011;60147;55.036;73.242;2023-04-22T06:24:09;10.82;;;4.10;;
64060;SDS011;60147;55.036;73.242;2023-04-22T06:26:35;14.10;;;4.13;;
64060;SDS011;60147;55.036;73.242;2023-04-22T06:29:20;12.57;;;4.00;;
64060;SDS011;60147;55.036;73.242;2023-04-22T06:34:36;10.75;;;3.55;;
64060;SDS011;60147;55.036;73.242;2023-04-22T06:37:03;13.88;;;3.67;;
64060;SDS011;60147;55.036;73.242;2023-04-22T06:39:29;6.78;;;3.40;;
64060;SDS011;60147;55.036;73.242;2023-04-22T06:42:06;9.98;;;3.20;;
64060;SDS011;60147;55.036;73.242;2023-04-22T06:45:02;12.07;;;3.42;;
64060;SDS011;60147;55.036;73.242;2023-04-22T06:47:46;6.30;;;2.78;;
64060;SDS011;60147;55.036;73.242;2023-04-22T06:50:20;10.57;;;4.03;;
64060;SDS011;60147;55.036;73.242;2023-04-22T06:52:57;8.57;;;3.58;;
64060;SDS011;60147;55.036;73.242;2023-04-22T06:55:41;9.35;;;3.47;;
64060;SDS011;60147;55.036;73.242;2023-04-22T06:58:10;9.90;;;3.30;;
64060;SDS011;60147;55.036;73.242;2023-04-22T07:00:36;11.90;;;3.88;;
64060;SDS011;60147;55.036;73.242;2023-04-22T07:03:02;13.07;;;3.35;;
64060;SDS011;60147;55.036;73.242;2023-04-22T07:05:28;12.77;;;3.83;;
64060;SDS011;60147;55.036;73.242;2023-04-22T07:08:00;8.88;;;3.47;;
64060;SDS011;60147;55.036;73.242;2023-04-22T07:10:32;7.07;;;3.22;;
64060;SDS011;60147;55.036;73.242;2023-04-22T07:13:27;4.55;;;2.80;;
64060;SDS011;60147;55.036;73.242;2023-04-22T07:15:53;7.68;;;3.00;;
64060;SDS011;60147;55.036;73.242;2023-04-22T07:18:19;8.77;;;3.30;;
64060;SDS011;60147;55.036;73.242;2023-04-22T07:20:45;8.07;;;3.50;;
64060;SDS011;60147;55.036;73.242;2023-04-22T07:23:11;8.43;;;3.67;;
64060;SDS011;60147;55.036;73.242;2023-04-22T07:25:37;6.18;;;3.30;;
64060;SDS011;60147;55.036;73.242;2023-04-22T07:28:02;14.50;;;3.33;;
64060;SDS011;60147;55.036;73.242;2023-04-22T07:30:28;8.60;;;3.22;;
64060;SDS011;60147;55.036;73.242;2023-04-22T07:33:12;6.90;;;2.92;;
64060;SDS011;60147;55.036;73.242;2023-04-22T07:35:43;9.88;;;3.28;;
64060;SDS011;60147;55.036;73.242;2023-04-22T07:38:28;9.40;;;3.20;;
64060;SDS011;60147;55.036;73.242;2023-04-22T07:41:02;7.07;;;3.50;;
64060;SDS011;60147;55.036;73.242;2023-04-22T07:43:28;9.27;;;4.13;;
64060;SDS011;60147;55.036;73.242;2023-04-22T07:45:54;11.00;;;4.45;;
64060;SDS011;60147;55.036;73.242;2023-04-22T07:48:20;8.88;;;3.65;;
64060;SDS011;60147;55.036;73.242;2023-04-22T07:50:46;15.73;;;8.75;;
64060;SDS011;60147;55.036;73.242;2023-04-22T07:53:12;12.25;;;6.40;;
64060;SDS011;60147;55.036;73.242;2023-04-22T07:55:40;10.93;;;3.40;;
64060;SDS011;60147;55.036;73.242;2023-04-22T07:58:24;7.38;;;3.28;;
64060;SDS011;60147;55.036;73.242;2023-04-22T08:00:50;13.27;;;3.72;;
64060;SDS011;60147;55.036;73.242;2023-04-22T08:03:34;6.93;;;2.97;;
64060;SDS011;60147;55.036;73.242;2023-04-22T08:06:00;8.52;;;3.22;;
64060;SDS011;60147;55.036;73.242;2023-04-22T08:08:26;10.23;;;3.03;;
64060;SDS011;60147;55.036;73.242;2023-04-22T08:10:52;11.45;;;3.45;;
64060;SDS011;60147;55.036;73.242;2023-04-22T08:13:21;16.58;;;3.85;;
64060;SDS011;60147;55.036;73.242;2023-04-22T08:18:32;8.80;;;3.42;;
64060;SDS011;60147;55.036;73.242;2023-04-22T08:20:58;6.65;;;2.80;;
64060;SDS011;60147;55.036;73.242;2023-04-22T08:23:35;9.90;;;2.60;;
64060;SDS011;60147;55.036;73.242;2023-04-22T08:26:01;13.02;;;2.65;;
64060;SDS011;60147;55.036;73.242;2023-04-22T08:28:27;10.90;;;2.95;;
64060;SDS011;60147;55.036;73.242;2023-04-22T08:30:53;6.10;;;2.70;;
64060;SDS011;60147;55.036;73.242;2023-04-22T08:33:41;11.95;;;3.03;;
64060;SDS011;60147;55.036;73.242;2023-04-22T08:36:16;9.18;;;4.00;;
64060;SDS011;60147;55.036;73.242;2023-04-22T08:38:42;62.75;;;24.33;;
64060;SDS011;60147;55.036;73.242;2023-04-22T08:41:08;36.75;;;20.08;;
64060;SDS011;60147;55.036;73.242;2023-04-22T08:43:40;14.65;;;9.57;;
64060;SDS011;60147;55.036;73.242;2023-04-22T08:46:09;11.93;;;7.07;;
64060;SDS011;60147;55.036;73.242;2023-04-22T08:48:54;8.07;;;4.28;;
64060;SDS011;60147;55.036;73.242;2023-04-22T08:51:21;8.50;;;3.88;;
64060;SDS011;60147;55.036;73.242;2023-04-22T08:56:32;7.78;;;2.63;;
64060;SDS011;60147;55.036;73.242;2023-04-22T08:59:17;6.53;;;2.40;;
64060;SDS011;60147;55.036;73.242;2023-04-22T09:01:48;9.37;;;3.60;;
64060;SDS011;60147;55.036;73.242;2023-04-22T09:04:35;12.60;;;3.92;;
64060;SDS011;60147;55.036;73.242;2023-04-22T09:07:01;7.05;;;2.47;;
64060;SDS011;60147;55.036;73.242;2023-04-22T09:09:32;9.98;;;3.20;;
64060;SDS011;60147;55.036;73.242;2023-04-22T09:11:58;7.35;;;2.72;;
64060;SDS011;60147;55.036;73.242;2023-04-22T09:14:24;7.30;;;2.42;;
64060;SDS011;60147;55.036;73.242;2023-04-22T09:16:50;7.05;;;2.10;;
64060;SDS011;60147;55.036;73.242;2023-04-22T09:22:19;5.38;;;2.30;;
64060;SDS011;60147;55.036;73.242;2023-04-22T09:24:49;6.38;;;2.70;;
64060;SDS011;60147;55.036;73.242;2023-04-22T09:27:22;7.10;;;2.47;;
64060;SDS011;60147;55.036;73.242;2023-04-22T09:29:49;13.05;;;4.45;;
64060;SDS011;60147;55.036;73.242;2023-04-22T09:32:23;10.07;;;4.32;;
64060;SDS011;60147;55.036;73.242;2023-04-22T09:34:52;9.80;;;3.63;;
64060;SDS011;60147;55.036;73.242;2023-04-22T09:37:37;6.00;;;2.65;;
64060;SDS011;60147;55.036;73.242;2023-04-22T09:40:21;13.98;;;2.53;;
64060;SDS011;60147;55.036;73.242;2023-04-22T09:42:53;6.85;;;2.47;;
64060;SDS011;60147;55.036;73.242;2023-04-22T09:45:33;9.77;;;2.50;;
64060;SDS011;60147;55.036;73.242;2023-04-22T09:48:17;9.57;;;3.28;;
64060;SDS011;60147;55.036;73.242;2023-04-22T09:53:28;5.88;;;2.78;;
64060;SDS011;60147;55.036;73.242;2023-04-22T09:56:19;11.07;;;3.05;;
64060;SDS011;60147;55.036;73.242;2023-04-22T09:58:50;10.15;;;2.90;;
64060;SDS011;60147;55.036;73.242;2023-04-22T10:01:16;12.23;;;3.65;;
64060;SDS011;60147;55.036;73.242;2023-04-22T10:03:51;9.10;;;3.00;;
64060;SDS011;60147;55.036;73.242;2023-04-22T10:06:17;12.25;;;3.00;;
64060;SDS011;60147;55.036;73.242;2023-04-22T10:08:43;8.35;;;2.60;;
64060;SDS011;60147;55.036;73.242;2023-04-22T10:11:09;9.90;;;3.33;;
64060;SDS011;60147;55.036;73.242;2023-04-22T10:13:35;8.20;;;2.85;;
64060;SDS011;60147;55.036;73.242;2023-04-22T10:16:01;11.23;;;2.95;;
64060;SDS011;60147;55.036;73.242;2023-04-22T10:18:32;9.90;;;2.80;;
64060;SDS011;60147;55.036;73.242;2023-04-22T10:20:58;10.57;;;4.00;;
64060;SDS011;60147;55.036;73.242;2023-04-22T10:23:25;17.65;;;9.35;;
64060;SDS011;60147;55.036;73.242;2023-04-22T10:25:54;11.95;;;5.20;;
64060;SDS011;60147;55.036;73.242;2023-04-22T10:28:21;9.50;;;3.50;;
64060;SDS011;60147;55.036;73.242;2023-04-22T10:30:58;14.55;;;3.33;;
64060;SDS011;60147;55.036;73.242;2023-04-22T10:36:06;16.38;;;4.80;;
64060;SDS011;60147;55.036;73.242;2023-04-22T10:38:35;8.85;;;2.75;;
64060;SDS011;60147;55.036;73.242;2023-04-22T10:41:01;5.82;;;2.90;;
64060;SDS011;60147;55.036;73.242;2023-04-22T10:43:56;18.25;;;6.40;;
64060;SDS011;60147;55.036;73.242;2023-04-22T10:49:15;19.13;;;9.02;;
64060;SDS011;60147;55.036;73.242;2023-04-22T10:51:56;16.63;;;5.65;;
64060;SDS011;60147;55.036;73.242;2023-04-22T10:57:11;8.82;;;4.00;;
64060;SDS011;60147;55.036;73.242;2023-04-22T10:59:57;22.20;;;13.13;;
64060;SDS011;60147;55.036;73.242;2023-04-22T11:05:31;11.73;;;3.30;;
64060;SDS011;60147;55.036;73.242;2023-04-22T11:08:03;13.63;;;2.83;;
64060;SDS011;60147;55.036;73.242;2023-04-22T11:10:49;10.32;;;3.60;;
64060;SDS011;60147;55.036;73.242;2023-04-22T11:13:15;17.20;;;5.10;;
64060;SDS011;60147;55.036;73.242;2023-04-22T11:15:52;20.33;;;4.20;;
64060;SDS011;60147;55.036;73.242;2023-04-22T11:18:25;16.80;;;3.80;;
64060;SDS011;60147;55.036;73.242;2023-04-22T11:23:54;13.80;;;7.07;;
64060;SDS011;60147;55.036;73.242;2023-04-22T11:26:31;10.88;;;5.32;;
64060;SDS011;60147;55.036;73.242;2023-04-22T11:28:58;13.30;;;7.40;;
64060;SDS011;60147;55.036;73.242;2023-04-22T11:31:25;12.57;;;5.35;;
64060;SDS011;60147;55.036;73.242;2023-04-22T11:36:44;11.55;;;4.57;;
64060;SDS011;60147;55.036;73.242;2023-04-22T11:39:10;14.13;;;4.40;;
64060;SDS011;60147;55.036;73.242;2023-04-22T11:41:54;8.77;;;3.30;;
64060;SDS011;60147;55.036;73.242;2023-04-22T11:47:24;6.70;;;3.33;;
64060;SDS011;60147;55.036;73.242;2023-04-22T11:49:53;8.73;;;4.18;;
64060;SDS011;60147;55.036;73.242;2023-04-22T11:52:49;7.45;;;3.53;;
64060;SDS011;60147;55.036;73.242;2023-04-22T11:55:19;15.40;;;4.93;;
64060;SDS011;60147;55.036;73.242;2023-04-22T11:57:50;10.45;;;4.43;;
64060;SDS011;60147;55.036;73.242;2023-04-22T12:00:16;12.05;;;4.40;;
64060;SDS011;60147;55.036;73.242;2023-04-22T12:05:43;53.80;;;19.13;;
64060;SDS011;60147;55.036;73.242;2023-04-22T12:08:13;23.97;;;10.53;;
64060;SDS011;60147;55.036;73.242;2023-04-22T12:10:47;15.88;;;7.40;;
64060;SDS011;60147;55.036;73.242;2023-04-22T12:16:40;13.85;;;7.15;;
64060;SDS011;60147;55.036;73.242;2023-04-22T12:19:06;16.65;;;6.97;;
64060;SDS011;60147;55.036;73.242;2023-04-22T12:21:32;15.43;;;7.57;;
64060;SDS011;60147;55.036;73.242;2023-04-22T12:24:07;14.02;;;8.00;;
64060;SDS011;60147;55.036;73.242;2023-04-22T12:26:35;10.98;;;5.82;;
64060;SDS011;60147;55.036;73.242;2023-04-22T12:29:02;14.68;;;7.57;;
64060;SDS011;60147;55.036;73.242;2023-04-22T12:31:28;8.73;;;5.32;;
64060;SDS011;60147;55.036;73.242;2023-04-22T12:33:54;16.48;;;8.25;;
64060;SDS011;60147;55.036;73.242;2023-04-22T12:36:20;30.48;;;14.30;;
64060;SDS011;60147;55.036;73.242;2023-04-22T12:38:56;38.58;;;18.33;;
64060;SDS011;60147;55.036;73.242;2023-04-22T12:41:32;31.30;;;14.55;;
64060;SDS011;60147;55.036;73.242;2023-04-22T12:44:08;37.50;;;14.18;;
64060;SDS011;60147;55.036;73.242;2023-04-22T12:46:34;14.75;;;5.70;;
64060;SDS011;60147;55.036;73.242;2023-04-22T12:49:00;18.25;;;6.10;;
64060;SDS011;60147;55.036;73.242;2023-04-22T12:51:26;23.60;;;7.35;;
64060;SDS011;60147;55.036;73.242;2023-04-22T12:54:02;22.08;;;6.63;;
64060;SDS011;60147;55.036;73.242;2023-04-22T12:59:13;24.63;;;9.13;;
64060;SDS011;60147;55.036;73.242;2023-04-22T13:01:44;116.63;;;66.80;;
64060;SDS011;60147;55.036;73.242;2023-04-22T13:04:10;22.42;;;9.85;;
64060;SDS011;60147;55.036;73.242;2023-04-22T13:06:36;21.20;;;8.30;;
64060;SDS011;60147;55.036;73.242;2023-04-22T13:09:03;14.60;;;8.15;;
64060;SDS011;60147;55.036;73.242;2023-04-22T13:11:47;19.38;;;8.20;;
64060;SDS011;60147;55.036;73.242;2023-04-22T13:14:13;22.02;;;7.68;;
64060;SDS011;60147;55.036;73.242;2023-04-22T13:16:58;22.65;;;12.23;;
64060;SDS011;60147;55.036;73.242;2023-04-22T13:19:24;17.40;;;7.32;;
64060;SDS011;60147;55.036;73.242;2023-04-22T13:22:09;17.75;;;7.05;;
64060;SDS011;60147;55.036;73.242;2023-04-22T13:24:35;17.55;;;7.28;;
64060;SDS011;60147;55.036;73.242;2023-04-22T13:27:01;19.83;;;9.77;;
64060;SDS011;60147;55.036;73.242;2023-04-22T13:30:05;14.25;;;7.32;;
64060;SDS011;60147;55.036;73.242;2023-04-22T13:32:50;24.80;;;9.25;;
64060;SDS011;60147;55.036;73.242;2023-04-22T13:35:34;18.42;;;9.48;;
64060;SDS011;60147;55.036;73.242;2023-04-22T13:38:19;21.13;;;9.73;;
64060;SDS011;60147;55.036;73.242;2023-04-22T13:40:45;22.67;;;9.10;;
64060;SDS011;60147;55.036;73.242;2023-04-22T13:43:11;31.83;;;12.55;;
64060;SDS011;60147;55.036;73.242;2023-04-22T13:48:21;32.30;;;13.35;;
64060;SDS011;60147;55.036;73.242;2023-04-22T13:50:47;24.77;;;10.30;;
64060;SDS011;60147;55.036;73.242;2023-04-22T13:53:13;29.02;;;15.98;;
64060;SDS011;60147;55.036;73.242;2023-04-22T13:55:39;67.88;;;40.47;;
64060;SDS011;60147;55.036;73.242;2023-04-22T13:58:05;29.80;;;14.15;;
64060;SDS011;60147;55.036;73.242;2023-04-22T14:00:32;33.63;;;13.48;;
64060;SDS011;60147;55.036;73.242;2023-04-22T14:06:30;29.42;;;13.63;;
64060;SDS011;60147;55.036;73.242;2023-04-22T14:08:57;27.77;;;15.55;;
64060;SDS011;60147;55.036;73.242;2023-04-22T14:11:33;19.23;;;9.95;;
64060;SDS011;60147;55.036;73.242;2023-04-22T14:13:59;17.95;;;9.80;;
64060;SDS011;60147;55.036;73.242;2023-04-22T14:16:30;16.73;;;7.88;;
64060;SDS011;60147;55.036;73.242;2023-04-22T14:18:56;20.75;;;9.52;;
64060;SDS011;60147;55.036;73.242;2023-04-22T14:21:22;16.33;;;9.32;;
64060;SDS011;60147;55.036;73.242;2023-04-22T14:23:48;17.38;;;8.07;;
64060;SDS011;60147;55.036;73.242;2023-04-22T14:26:14;23.23;;;9.05;;
64060;SDS011;60147;55.036;73.242;2023-04-22T14:28:58;18.48;;;9.18;;
64060;SDS011;60147;55.036;73.242;2023-04-22T14:31:24;18.20;;;8.88;;
64060;SDS011;60147;55.036;73.242;2023-04-22T14:34:09;17.55;;;8.80;;
64060;SDS011;60147;55.036;73.242;2023-04-22T14:36:35;22.52;;;10.55;;
64060;SDS011;60147;55.036;73.242;2023-04-22T14:39:01;27.17;;;17.73;;
64060;SDS011;60147;55.036;73.242;2023-04-22T14:41:26;23.15;;;10.55;;
64060;SDS011;60147;55.036;73.242;2023-04-22T14:43:52;27.90;;;10.90;;
64060;SDS011;60147;55.036;73.242;2023-04-22T14:46:18;17.92;;;10.20;;
64060;SDS011;60147;55.036;73.242;2023-04-22T14:48:44;22.08;;;11.18;;
64060;SDS011;60147;55.036;73.242;2023-04-22T14:51:10;23.48;;;10.85;;
64060;SDS011;60147;55.036;73.242;2023-04-22T14:53:36;22.65;;;10.75;;
64060;SDS011;60147;55.036;73.242;2023-04-22T14:56:02;30.55;;;11.82;;
64060;SDS011;60147;55.036;73.242;2023-04-22T15:01:31;24.98;;;10.88;;
64060;SDS011;60147;55.036;73.242;2023-04-22T15:04:01;30.13;;;11.43;;
64060;SDS011;60147;55.036;73.242;2023-04-22T15:06:46;23.15;;;10.20;;
64060;SDS011;60147;55.036;73.242;2023-04-22T15:09:11;22.13;;;9.88;;
64060;SDS011;60147;55.036;73.242;2023-04-22T15:11:37;18.38;;;9.63;;
64060;SDS011;60147;55.036;73.242;2023-04-22T15:14:03;23.27;;;10.20;;
64060;SDS011;60147;55.036;73.242;2023-04-22T15:16:47;27.92;;;10.57;;
64060;SDS011;60147;55.036;73.242;2023-04-22T15:21:44;19.83;;;9.75;;
64060;SDS011;60147;55.036;73.242;2023-04-22T15:24:57;22.58;;;10.35;;
64060;SDS011;60147;55.036;73.242;2023-04-22T15:27:28;20.95;;;10.73;;
64060;SDS011;60147;55.036;73.242;2023-04-22T15:30:18;34.28;;;15.68;;
64060;SDS011;60147;55.036;73.242;2023-04-22T15:32:44;61.72;;;25.40;;
64060;SDS011;60147;55.036;73.242;2023-04-22T15:35:14;42.55;;;17.98;;
64060;SDS011;60147;55.036;73.242;2023-04-22T15:37:40;41.67;;;16.77;;
64060;SDS011;60147;55.036;73.242;2023-04-22T15:40:06;74.50;;;29.95;;
64060;SDS011;60147;55.036;73.242;2023-04-22T15:42:32;54.15;;;25.30;;
64060;SDS011;60147;55.036;73.242;2023-04-22T15:45:08;40.72;;;20.17;;
64060;SDS011;60147;55.036;73.242;2023-04-22T15:47:34;25.25;;;12.68;;
64060;SDS011;60147;55.036;73.242;2023-04-22T15:50:00;48.40;;;18.63;;
64060;SDS011;60147;55.036;73.242;2023-04-22T15:52:49;55.78;;;19.38;;
64060;SDS011;60147;55.036;73.242;2023-04-22T15:55:34;28.75;;;14.50;;
64060;SDS011;60147;55.036;73.242;2023-04-22T15:58:00;40.78;;;17.33;;
64060;SDS011;60147;55.036;73.242;2023-04-22T16:00:27;46.92;;;20.67;;
64060;SDS011;60147;55.036;73.242;2023-04-22T16:02:53;48.80;;;21.05;;
64060;SDS011;60147;55.036;73.242;2023-04-22T16:05:37;38.88;;;18.63;;
64060;SDS011;60147;55.036;73.242;2023-04-22T16:08:08;47.38;;;21.90;;
64060;SDS011;60147;55.036;73.242;2023-04-22T16:10:34;33.53;;;14.20;;
64060;SDS011;60147;55.036;73.242;2023-04-22T16:13:00;23.63;;;10.70;;
64060;SDS011;60147;55.036;73.242;2023-04-22T16:15:26;16.30;;;8.65;;
64060;SDS011;60147;55.036;73.242;2023-04-22T16:17:53;13.52;;;5.95;;
64060;SDS011;60147;55.036;73.242;2023-04-22T16:20:19;21.27;;;8.27;;
64060;SDS011;60147;55.036;73.242;2023-04-22T16:22:45;15.18;;;6.13;;